Time;durP1;ratioP1;P1;durP2;ratioP2;P2;SDS_P1;SDS_P2;PMS_P1;PMS_P2;Temp;Humidity;BMP_temperature;BMP_pressure;BME280_temperature;BME280_humidity;BME280_pressure;Samples;Min_cycle;Max_cycle;Signal;HPM_P1;HPM_P2
2021/10/12 00:01:48;;;;;;;0.65;0.40;;;22.80;70.70;;;;;;5125025;28;20020;-36
2021/10/12 00:04:14;;;;;;;0.40;0.30;;;22.80;70.70;;;;;;5124364;28;20038;-37
2021/10/12 00:06:40;;;;;;;0.40;0.40;;;22.90;70.90;;;;;;5125783;28;20030;-36
2021/10/12 00:09:07;;;;;;;0.80;0.40;;;22.90;70.90;;;;;;5125830;28;20059;-36
2021/10/12 00:11:33;;;;;;;0.37;0.30;;;22.90;70.90;;;;;;5125308;28;20032;-36
2021/10/12 00:13:59;;;;;;;1.08;0.50;;;22.90;70.90;;;;;;5125627;28;20426;-36
2021/10/12 00:16:25;;;;;;;0.60;0.43;;;22.90;70.80;;;;;;5125422;28;20027;-36
2021/10/12 00:18:52;;;;;;;0.93;0.60;;;22.90;69.70;;;;;;5125343;28;20026;-36
2021/10/12 00:21:18;;;;;;;0.40;0.37;;;22.90;68.60;;;;;;5125604;28;20028;-36
2021/10/12 00:23:44;;;;;;;0.70;0.50;;;22.80;68.40;;;;;;5106615;28;20095;-36
2021/10/12 00:26:10;;;;;;;1.03;0.60;;;22.80;68.50;;;;;;5125291;28;20039;-36
2021/10/12 00:28:37;;;;;;;0.53;0.50;;;22.80;68.70;;;;;;5124765;28;20155;-36
2021/10/12 00:31:03;;;;;;;0.60;0.50;;;22.80;69.20;;;;;;5125232;28;20077;-36
2021/10/12 00:33:30;;;;;;;0.88;0.50;;;22.80;69.30;;;;;;5124894;28;20067;-36
2021/10/12 00:35:56;;;;;;;0.93;0.57;;;22.80;69.60;;;;;;5090301;28;20028;-36
2021/10/12 00:38:22;;;;;;;0.60;0.47;;;22.80;69.70;;;;;;5125171;28;20030;-36
2021/10/12 00:40:49;;;;;;;0.70;0.47;;;22.80;69.70;;;;;;5125200;28;20055;-36
2021/10/12 00:43:15;;;;;;;0.60;0.60;;;22.80;69.90;;;;;;5124771;28;20031;-36
2021/10/12 00:45:41;;;;;;;0.50;0.50;;;22.80;70.00;;;;;;5125260;28;20032;-36
2021/10/12 00:48:08;;;;;;;0.40;0.35;;;22.80;70.00;;;;;;5124931;28;20079;-36
2021/10/12 00:50:36;;;;;;;0.65;0.50;;;22.80;70.00;;;;;;5124478;28;20060;-36
2021/10/12 00:53:02;;;;;;;0.90;0.57;;;22.80;70.00;;;;;;5124646;28;20044;-36
2021/10/12 00:55:29;;;;;;;1.63;0.55;;;22.80;70.00;;;;;;5124854;28;20096;-36
2021/10/12 00:57:55;;;;;;;0.60;0.40;;;22.80;70.20;;;;;;5106061;27;20043;-36
2021/10/12 01:00:21;;;;;;;0.90;0.80;;;22.80;70.20;;;;;;5124757;28;20041;-36
2021/10/12 01:02:48;;;;;;;0.82;0.45;;;22.80;70.20;;;;;;5124135;28;20034;-36
2021/10/12 01:05:14;;;;;;;0.60;0.60;;;22.80;70.30;;;;;;5106296;28;20571;-36
2021/10/12 01:07:40;;;;;;;0.97;0.50;;;22.80;70.30;;;;;;5124599;28;20032;-36
2021/10/12 01:10:07;;;;;;;0.60;0.50;;;22.70;70.30;;;;;;5124676;28;20027;-36
2021/10/12 01:12:34;;;;;;;1.35;0.65;;;22.70;70.30;;;;;;5124068;28;20090;-36
2021/10/12 01:15:02;;;;;;;0.60;0.60;;;22.80;71.10;;;;;;5123933;28;20081;-36
2021/10/12 01:17:28;;;;;;;0.80;0.57;;;22.70;70.30;;;;;;5108646;28;20031;-36
2021/10/12 01:19:55;;;;;;;0.43;0.40;;;22.70;70.30;;;;;;5103810;28;20031;-36
2021/10/12 01:22:21;;;;;;;0.60;0.50;;;22.70;70.30;;;;;;5103738;28;20024;-36
2021/10/12 01:24:47;;;;;;;0.98;0.70;;;22.70;70.40;;;;;;5103812;28;20058;-36
2021/10/12 01:27:13;;;;;;;1.20;0.60;;;22.70;70.40;;;;;;5103661;28;20032;-36
2021/10/12 01:29:39;;;;;;;1.20;0.73;;;22.70;70.50;;;;;;5103731;28;20020;-36
2021/10/12 01:32:06;;;;;;;1.00;0.70;;;22.70;70.60;;;;;;5108023;28;20039;-36
2021/10/12 01:34:32;;;;;;;1.00;0.60;;;22.70;70.70;;;;;;5123902;28;20060;-36
2021/10/12 01:36:58;;;;;;;2.53;0.75;;;22.70;70.90;;;;;;5123921;28;20031;-36
2021/10/12 01:39:25;;;;;;;0.90;0.45;;;22.70;70.90;;;;;;5124010;28;20090;-36
2021/10/12 01:41:51;;;;;;;1.33;0.73;;;22.70;70.90;;;;;;5123856;28;20023;-36
2021/10/12 01:44:18;;;;;;;2.13;0.60;;;22.70;71.00;;;;;;5123591;28;20032;-36
2021/10/12 01:46:44;;;;;;;0.45;0.45;;;22.70;71.00;;;;;;5123806;28;20024;-36
2021/10/12 01:49:10;;;;;;;0.60;0.40;;;22.70;71.00;;;;;;5123266;28;20047;-36
2021/10/12 01:51:36;;;;;;;0.95;0.60;;;22.70;71.10;;;;;;5123639;28;20276;-36
2021/10/12 01:54:34;;;;;;;0.70;0.50;;;22.70;71.00;;;;;;5105421;28;20064;-36
2021/10/12 01:57:00;;;;;;;0.88;0.60;;;22.70;71.10;;;;;;5106156;28;20059;-36
2021/10/12 01:59:26;;;;;;;0.95;0.50;;;22.70;71.00;;;;;;5123488;27;20058;-36
2021/10/12 02:01:53;;;;;;;0.63;0.50;;;22.70;70.90;;;;;;5123482;28;20102;-36
2021/10/12 02:04:19;;;;;;;0.70;0.60;;;22.70;70.90;;;;;;5123403;28;20019;-36
2021/10/12 02:06:45;;;;;;;1.10;0.80;;;22.70;70.90;;;;;;5123407;28;20023;-36
2021/10/12 02:09:11;;;;;;;0.82;0.65;;;22.70;70.80;;;;;;5122864;28;20022;-36
2021/10/12 02:11:39;;;;;;;0.95;0.70;;;22.70;70.80;;;;;;5123344;28;20032;-36
2021/10/12 02:14:06;;;;;;;1.02;0.60;;;22.70;70.90;;;;;;5123306;28;20061;-36
2021/10/12 02:16:32;;;;;;;1.67;0.80;;;22.70;70.90;;;;;;5123125;28;20015;-36
2021/10/12 02:18:59;;;;;;;1.88;0.65;;;22.70;71.00;;;;;;5122739;28;20036;-39
2021/10/12 02:21:25;;;;;;;3.15;0.77;;;22.70;71.00;;;;;;5123179;28;20040;-36
2021/10/12 02:23:51;;;;;;;2.63;0.70;;;22.70;70.80;;;;;;5123080;28;20028;-36
2021/10/12 02:26:17;;;;;;;0.75;0.55;;;22.70;70.90;;;;;;5122991;28;20032;-36
2021/10/12 02:28:43;;;;;;;1.08;0.73;;;22.70;70.90;;;;;;5122834;28;20552;-36
2021/10/12 02:31:10;;;;;;;1.50;0.70;;;22.70;70.80;;;;;;5123052;28;20024;-36
2021/10/12 02:33:36;;;;;;;1.40;0.80;;;22.70;70.60;;;;;;5122745;28;20035;-36
2021/10/12 02:36:02;;;;;;;1.65;0.75;;;22.70;70.70;;;;;;5123071;28;20032;-36
2021/10/12 02:38:28;;;;;;;1.13;0.60;;;22.60;70.50;;;;;;5123111;28;20034;-36
2021/10/12 02:40:55;;;;;;;1.25;0.70;;;22.60;70.40;;;;;;5123253;28;20453;-36
2021/10/12 02:43:21;;;;;;;1.17;0.70;;;22.60;70.30;;;;;;5122774;28;20032;-36
2021/10/12 02:45:48;;;;;;;0.85;0.60;;;22.60;70.40;;;;;;5122935;28;20023;-36
2021/10/12 02:48:14;;;;;;;1.23;0.70;;;22.60;70.40;;;;;;5123084;28;20078;-36
2021/10/12 02:50:40;;;;;;;0.60;0.60;;;22.60;70.40;;;;;;5122669;28;20048;-36
2021/10/12 02:53:06;;;;;;;1.33;0.70;;;22.60;70.40;;;;;;5123134;28;20092;-36
2021/10/12 02:55:32;;;;;;;1.70;0.80;;;22.60;70.30;;;;;;5122978;28;20068;-36
2021/10/12 02:57:58;;;;;;;0.88;0.68;;;22.60;70.40;;;;;;5122795;28;20031;-36
2021/10/12 03:00:25;;;;;;;1.20;0.70;;;22.60;70.40;;;;;;5123051;27;20034;-36
2021/10/12 03:02:51;;;;;;;1.23;0.70;;;22.60;70.40;;;;;;5122586;28;20020;-36
2021/10/12 03:05:17;;;;;;;1.20;0.60;;;22.60;70.40;;;;;;5122317;28;20075;-36
2021/10/12 03:07:43;;;;;;;1.45;0.80;;;22.60;70.60;;;;;;5123071;28;20080;-36
2021/10/12 03:10:09;;;;;;;2.35;0.70;;;22.60;70.30;;;;;;5122592;28;20027;-36
2021/10/12 03:12:35;;;;;;;0.90;0.60;;;22.50;70.40;;;;;;5122886;28;20031;-36
2021/10/12 03:15:02;;;;;;;1.08;0.80;;;22.50;70.30;;;;;;5122679;28;20023;-36
2021/10/12 03:17:28;;;;;;;1.00;0.75;;;22.50;70.40;;;;;;5122511;28;20079;-36
2021/10/12 03:19:55;;;;;;;1.00;0.50;;;22.50;70.30;;;;;;5122691;28;20081;-36
2021/10/12 03:22:21;;;;;;;1.13;0.80;;;22.50;70.40;;;;;;5123017;28;20028;-36
2021/10/12 03:24:47;;;;;;;0.80;0.70;;;22.50;70.40;;;;;;5122673;28;20034;-36
2021/10/12 03:27:13;;;;;;;1.35;0.82;;;22.50;70.30;;;;;;5122687;28;20031;-36
2021/10/12 03:29:40;;;;;;;0.95;0.68;;;22.50;70.40;;;;;;5122567;28;20080;-36
2021/10/12 03:32:06;;;;;;;1.05;0.60;;;22.50;70.40;;;;;;5100765;28;20119;-36
2021/10/12 03:34:32;;;;;;;0.90;0.60;;;22.50;70.50;;;;;;5102166;28;20446;-36
2021/10/12 03:36:59;;;;;;;1.52;0.70;;;22.50;70.50;;;;;;5102082;28;20778;-36
2021/10/12 03:39:25;;;;;;;0.60;0.60;;;22.50;70.50;;;;;;5124842;28;20016;-36
2021/10/12 03:41:51;;;;;;;1.92;0.90;;;22.50;70.50;;;;;;5126353;28;20027;-36
2021/10/12 03:44:18;;;;;;;1.57;0.70;;;22.40;70.40;;;;;;5126002;28;20034;-36
2021/10/12 03:46:45;;;;;;;1.20;0.70;;;22.40;70.40;;;;;;5125692;28;20032;-36
2021/10/12 03:49:11;;;;;;;1.58;0.80;;;22.40;70.40;;;;;;5125639;28;20044;-36
2021/10/12 03:51:37;;;;;;;1.05;0.70;;;22.40;70.50;;;;;;5125667;28;20028;-36
2021/10/12 03:54:03;;;;;;;0.80;0.70;;;22.40;70.50;;;;;;5126212;28;20111;-36
2021/10/12 03:56:29;;;;;;;1.80;0.60;;;22.40;70.50;;;;;;5125817;28;20023;-36
2021/10/12 03:58:56;;;;;;;1.42;0.68;;;22.40;70.50;;;;;;5125165;27;20047;-37
2021/10/12 04:01:22;;;;;;;2.55;0.93;;;22.40;70.50;;;;;;5125558;28;20020;-36
2021/10/12 04:03:48;;;;;;;1.88;0.80;;;22.40;70.60;;;;;;5125871;28;20053;-36
2021/10/12 04:06:15;;;;;;;1.35;0.65;;;22.40;70.60;;;;;;5125713;28;20023;-36
2021/10/12 04:08:42;;;;;;;1.02;0.77;;;22.40;70.60;;;;;;5125783;28;20034;-36
2021/10/12 04:11:09;;;;;;;1.10;0.70;;;22.40;70.60;;;;;;5125265;28;20043;-36
2021/10/12 04:13:35;;;;;;;1.35;0.73;;;22.40;70.60;;;;;;5125524;28;20502;-36
2021/10/12 04:16:01;;;;;;;0.73;0.73;;;22.30;70.50;;;;;;5125540;28;20024;-36
2021/10/12 04:18:27;;;;;;;1.13;0.70;;;22.40;70.60;;;;;;5125664;28;20080;-36
2021/10/12 04:20:53;;;;;;;0.95;0.70;;;22.30;70.60;;;;;;5125361;28;20023;-36
2021/10/12 04:23:20;;;;;;;1.02;0.75;;;22.30;70.60;;;;;;5125644;28;20034;-36
2021/10/12 04:25:47;;;;;;;0.90;0.60;;;22.30;70.70;;;;;;5125521;28;20015;-36
2021/10/12 04:28:13;;;;;;;1.45;0.73;;;22.30;70.60;;;;;;5107320;28;20784;-36
2021/10/12 04:30:44;;;;;;;1.23;0.80;;;22.30;70.70;;;;;;5124943;28;20020;-36
2021/10/12 04:33:10;;;;;;;1.25;0.90;;;22.30;70.80;;;;;;5125154;28;20039;-36
2021/10/12 04:35:37;;;;;;;1.48;0.90;;;22.30;70.80;;;;;;5125118;28;20027;-36
2021/10/12 04:38:04;;;;;;;2.20;0.80;;;22.30;70.80;;;;;;5107158;28;20100;-36
2021/10/12 04:40:30;;;;;;;1.02;0.85;;;22.30;70.80;;;;;;5125120;28;20023;-36
2021/10/12 04:42:57;;;;;;;2.27;1.00;;;22.30;71.10;;;;;;5125046;28;20027;-36
2021/10/12 04:45:23;;;;;;;;;;;22.30;70.90;;;;;;5125450;28;20027;-36
2021/10/12 04:47:50;;;;;;;0.98;0.70;;;22.30;70.90;;;;;;5125127;28;19904;-36
2021/10/12 04:50:16;;;;;;;1.27;0.80;;;22.30;70.90;;;;;;5123664;28;20036;-36
2021/10/12 04:52:43;;;;;;;1.25;0.82;;;22.30;70.90;;;;;;5124771;28;20036;-36
2021/10/12 04:55:09;;;;;;;;;;;22.30;71.00;;;;;;5125086;28;20035;-36
2021/10/12 04:57:35;;;;;;;1.10;0.70;;;22.30;71.00;;;;;;5124798;28;19943;-36
2021/10/12 05:00:02;;;;;;;2.80;1.00;;;22.30;71.00;;;;;;5113051;28;20031;-36
2021/10/12 05:02:28;;;;;;;1.35;0.90;;;22.30;71.10;;;;;;5104067;28;20028;-36
2021/10/12 05:04:54;;;;;;;1.23;0.80;;;22.30;71.10;;;;;;5104175;28;20028;-36
2021/10/12 05:07:20;;;;;;;1.55;0.93;;;22.30;71.10;;;;;;5103908;28;20024;-36
2021/10/12 05:09:46;;;;;;;1.10;0.90;;;22.30;71.10;;;;;;5104005;28;20127;-37
2021/10/12 05:12:12;;;;;;;1.73;1.08;;;22.20;71.10;;;;;;5103792;28;20043;-36
2021/10/12 05:14:39;;;;;;;1.20;0.82;;;22.20;71.10;;;;;;5103702;28;20035;-36
2021/10/12 05:17:13;;;;;;;1.88;1.00;;;22.20;71.10;;;;;;5104001;28;20145;-36
2021/10/12 05:19:39;;;;;;;1.00;0.90;;;22.30;71.20;;;;;;5103795;28;20090;-36
2021/10/12 05:22:05;;;;;;;1.23;1.00;;;22.20;71.20;;;;;;5103719;28;20122;-36
2021/10/12 05:24:32;;;;;;;2.40;1.27;;;22.20;71.20;;;;;;5103810;28;20016;-36
2021/10/12 05:26:58;;;;;;;1.92;1.02;;;22.20;71.20;;;;;;5103649;28;20144;-36
2021/10/12 05:29:24;;;;;;;2.15;0.98;;;22.20;71.20;;;;;;5109270;28;20057;-36
2021/10/12 05:31:50;;;;;;;2.10;0.90;;;22.20;71.20;;;;;;5121348;28;20472;-36
2021/10/12 05:34:18;;;;;;;1.85;1.10;;;22.20;71.30;;;;;;5103584;28;20066;-36
2021/10/12 05:36:44;;;;;;;1.23;0.98;;;22.20;71.30;;;;;;5085226;28;20028;-36
2021/10/12 05:39:11;;;;;;;1.25;1.10;;;22.20;71.30;;;;;;5103512;28;20028;-36
2021/10/12 05:41:37;;;;;;;1.50;1.10;;;22.20;71.30;;;;;;5103141;28;20069;-36
2021/10/12 05:44:03;;;;;;;1.42;1.10;;;22.20;71.30;;;;;;5103550;28;20077;-36
2021/10/12 05:46:29;;;;;;;1.75;1.20;;;22.20;71.30;;;;;;5103228;28;20028;-36
2021/10/12 05:48:57;;;;;;;1.65;1.17;;;22.20;71.40;;;;;;5104695;28;20118;-36
2021/10/12 05:51:25;;;;;;;1.00;0.90;;;22.20;71.50;;;;;;5123310;28;20042;-36
2021/10/12 05:53:53;;;;;;;1.42;1.17;;;22.10;71.30;;;;;;5123246;28;20020;-36
2021/10/12 05:56:38;;;;;;;1.92;0.85;;;22.10;71.30;;;;;;5123493;28;20015;-36
2021/10/12 05:59:05;;;;;;;1.40;1.00;;;22.10;72.00;;;;;;5123510;28;20142;-36
2021/10/12 06:01:31;;;;;;;2.60;1.05;;;22.10;71.40;;;;;;5111491;28;20362;-36
2021/10/12 06:03:57;;;;;;;1.10;1.00;;;22.10;71.40;;;;;;5113245;28;20133;-36
2021/10/12 06:06:23;;;;;;;2.63;1.10;;;22.10;71.40;;;;;;5123438;28;20036;-36
2021/10/12 06:08:49;;;;;;;2.47;1.08;;;22.10;71.40;;;;;;5122700;28;20015;-36
2021/10/12 06:11:16;;;;;;;1.27;1.10;;;22.10;71.50;;;;;;5123258;28;20019;-36
2021/10/12 06:13:42;;;;;;;2.15;1.25;;;22.10;71.40;;;;;;5123309;28;20459;-36
2021/10/12 06:16:08;;;;;;;1.70;1.30;;;22.10;71.40;;;;;;5123185;28;20058;-36
2021/10/12 06:18:34;;;;;;;1.25;1.10;;;22.10;71.50;;;;;;5123484;28;20259;-36
2021/10/12 06:21:00;;;;;;;1.30;1.20;;;22.10;71.50;;;;;;5123083;28;20042;-36
2021/10/12 06:23:27;;;;;;;1.80;1.15;;;22.10;71.50;;;;;;5123209;28;20115;-36
2021/10/12 06:25:53;;;;;;;1.70;1.30;;;22.00;71.50;;;;;;5123242;28;20030;-36
2021/10/12 06:28:20;;;;;;;1.40;1.17;;;22.00;71.50;;;;;;5123384;28;20063;-36
2021/10/12 06:30:46;;;;;;;2.40;1.27;;;22.00;71.50;;;;;;5123071;28;20034;-36
2021/10/12 06:33:13;;;;;;;1.30;1.10;;;22.00;71.50;;;;;;5123005;28;20135;-36
2021/10/12 06:35:39;;;;;;;1.67;1.20;;;22.00;71.50;;;;;;5122926;28;20027;-36
2021/10/12 06:38:05;;;;;;;2.10;1.40;;;22.00;71.60;;;;;;5122901;28;20527;-36
2021/10/12 06:40:32;;;;;;;1.75;1.30;;;22.00;71.50;;;;;;5123241;28;20042;-36
2021/10/12 06:42:58;;;;;;;1.20;1.10;;;22.00;71.60;;;;;;5122786;28;20028;-36
2021/10/12 06:45:24;;;;;;;1.88;1.40;;;22.00;71.60;;;;;;5123018;28;20016;-36
2021/10/12 06:47:50;;;;;;;1.27;1.17;;;22.00;71.60;;;;;;5123234;28;20404;-36
2021/10/12 06:50:18;;;;;;;1.67;1.38;;;22.00;71.70;;;;;;5122632;28;20106;-36
2021/10/12 06:52:44;;;;;;;1.42;1.20;;;22.00;71.70;;;;;;5122636;28;20036;-36
2021/10/12 06:55:11;;;;;;;2.00;1.17;;;22.00;71.70;;;;;;5122960;28;20028;-36
2021/10/12 06:57:37;;;;;;;1.23;1.10;;;22.00;71.70;;;;;;5122875;28;20026;-36
2021/10/12 07:00:05;;;;;;;1.75;1.20;;;21.90;71.70;;;;;;5122634;28;20057;-36
2021/10/12 07:02:31;;;;;;;2.13;1.17;;;21.90;71.70;;;;;;5122698;28;20044;-36
2021/10/12 07:04:57;;;;;;;2.00;1.20;;;21.90;71.80;;;;;;5122640;28;20053;-36
2021/10/12 07:07:23;;;;;;;3.67;1.37;;;21.90;71.70;;;;;;5122712;28;20034;-36
2021/10/12 07:09:49;;;;;;;3.10;1.38;;;21.90;71.70;;;;;;5104480;28;20088;-36
2021/10/12 07:12:16;;;;;;;1.52;1.20;;;21.90;71.80;;;;;;5122288;27;20107;-36
2021/10/12 07:14:42;;;;;;;2.53;1.45;;;21.90;71.80;;;;;;5125919;28;20057;-36
2021/10/12 07:17:08;;;;;;;1.85;1.40;;;21.90;71.80;;;;;;5126615;27;20043;-36
2021/10/12 07:19:34;;;;;;;1.33;1.23;;;21.90;71.80;;;;;;5126812;28;20027;-36
2021/10/12 07:22:00;;;;;;;1.48;1.38;;;21.90;71.80;;;;;;5126251;28;20476;-36
2021/10/12 07:24:26;;;;;;;2.00;1.20;;;21.90;71.90;;;;;;5126303;28;20037;-36
2021/10/12 07:26:53;;;;;;;1.65;1.42;;;21.90;71.90;;;;;;5126458;28;20024;-36
2021/10/12 07:29:20;;;;;;;1.45;1.30;;;21.90;71.90;;;;;;5109818;27;20038;-36
2021/10/12 07:31:46;;;;;;;2.03;1.20;;;21.90;72.00;;;;;;5128483;27;20035;-36
2021/10/12 07:34:12;;;;;;;1.60;1.40;;;21.90;72.00;;;;;;5146643;27;20027;-36
2021/10/12 07:36:39;;;;;;;1.42;1.25;;;21.90;72.00;;;;;;5146831;27;20042;-36
2021/10/12 07:39:05;;;;;;;1.98;1.33;;;21.90;72.00;;;;;;5146799;27;20023;-36
2021/10/12 07:41:32;;;;;;;1.90;1.67;;;21.90;72.00;;;;;;5146607;27;20043;-36
2021/10/12 07:43:58;;;;;;;1.63;1.50;;;21.90;72.00;;;;;;5128367;27;20474;-36
2021/10/12 07:46:25;;;;;;;2.88;1.35;;;21.80;72.60;;;;;;5146476;27;20138;-36
2021/10/12 07:48:53;;;;;;;1.35;1.25;;;21.80;71.90;;;;;;5146625;27;20034;-36
2021/10/12 07:51:20;;;;;;;1.88;1.38;;;21.80;71.90;;;;;;5146549;27;20035;-36
2021/10/12 07:53:46;;;;;;;1.75;1.20;;;21.90;72.10;;;;;;5146058;27;20038;-36
2021/10/12 07:56:18;;;;;;;1.25;1.15;;;21.80;71.90;;;;;;5145744;27;20024;-36
2021/10/12 07:58:45;;;;;;;1.27;1.17;;;21.80;72.00;;;;;;5105891;28;20085;-36
2021/10/12 08:01:11;;;;;;;2.50;1.20;;;21.80;72.00;;;;;;5125352;28;20027;-35
2021/10/12 08:03:41;;;;;;;1.30;1.20;;;21.80;72.00;;;;;;5125232;28;20047;-36
2021/10/12 08:06:07;;;;;;;1.77;1.30;;;21.80;72.00;;;;;;5125513;28;20039;-36
2021/10/12 08:08:34;;;;;;;1.70;1.43;;;21.80;72.00;;;;;;5125842;28;20024;-36
2021/10/12 08:11:00;;;;;;;1.50;1.40;;;21.80;72.00;;;;;;5125777;28;20400;-36
2021/10/12 08:13:28;;;;;;;1.55;1.30;;;21.80;72.10;;;;;;5124797;28;20035;-36
2021/10/12 08:15:58;;;;;;;1.52;1.30;;;21.80;72.10;;;;;;5125368;28;20520;-37
2021/10/12 08:18:24;;;;;;;2.05;1.60;;;21.80;72.10;;;;;;5125364;28;20055;-36
2021/10/12 08:20:50;;;;;;;2.10;1.33;;;21.80;72.10;;;;;;5125346;28;20023;-36
2021/10/12 08:23:17;;;;;;;1.42;1.30;;;21.80;72.10;;;;;;5125344;28;20039;-36
2021/10/12 08:25:43;;;;;;;1.80;1.50;;;21.80;72.10;;;;;;5124122;28;20027;-36
2021/10/12 08:28:10;;;;;;;1.73;1.42;;;21.80;72.10;;;;;;5125222;28;20034;-36
2021/10/12 08:30:37;;;;;;;1.58;1.48;;;21.80;72.20;;;;;;5124811;28;20062;-36
2021/10/12 08:33:03;;;;;;;1.55;1.33;;;21.80;72.20;;;;;;5124888;28;20073;-36
2021/10/12 08:35:29;;;;;;;1.45;1.35;;;21.80;72.30;;;;;;5125173;28;20027;-36
2021/10/12 08:37:55;;;;;;;1.95;1.45;;;21.70;72.30;;;;;;5124890;28;20031;-36
2021/10/12 08:40:21;;;;;;;2.45;1.67;;;21.80;72.30;;;;;;5124977;28;20031;-36
2021/10/12 08:42:49;;;;;;;1.83;1.40;;;21.80;72.40;;;;;;5124687;28;20514;-36
2021/10/12 08:45:15;;;;;;;2.15;1.40;;;21.80;72.30;;;;;;5124681;28;20049;-36
2021/10/12 08:47:42;;;;;;;2.50;1.67;;;21.80;72.40;;;;;;5124751;28;20107;-36
2021/10/12 08:50:09;;;;;;;2.17;1.70;;;21.70;72.30;;;;;;5124695;28;20708;-36
2021/10/12 08:52:36;;;;;;;1.92;1.45;;;21.70;72.30;;;;;;5124607;28;20103;-35
2021/10/12 08:55:02;;;;;;;1.33;1.23;;;21.70;72.30;;;;;;5124407;28;20051;-35
2021/10/12 08:57:32;;;;;;;1.52;1.38;;;21.70;72.30;;;;;;5124502;28;20039;-36
2021/10/12 09:00:01;;;;;;;2.03;1.60;;;21.70;72.40;;;;;;5106175;28;20455;-36
2021/10/12 09:02:28;;;;;;;1.75;1.60;;;21.70;72.30;;;;;;5124105;28;20029;-36
2021/10/12 09:04:55;;;;;;;1.80;1.70;;;21.70;72.40;;;;;;5124170;28;20024;-36
2021/10/12 09:07:23;;;;;;;1.95;1.75;;;21.70;72.40;;;;;;5124524;28;20024;-36
2021/10/12 09:09:50;;;;;;;1.85;1.67;;;21.70;72.40;;;;;;5124529;28;20039;-35
2021/10/12 09:12:16;;;;;;;2.08;1.50;;;21.70;72.40;;;;;;5124337;28;20120;-36
2021/10/12 09:14:56;;;;;;;2.08;1.80;;;21.70;72.50;;;;;;5124154;28;20149;-36
2021/10/12 09:17:33;;;;;;;1.55;1.35;;;21.70;72.50;;;;;;5124223;28;20031;-36
2021/10/12 09:20:00;;;;;;;4.28;1.60;;;21.70;72.50;;;;;;5124136;28;20019;-36
2021/10/12 09:22:26;;;;;;;1.73;1.50;;;21.70;72.50;;;;;;5124039;28;20523;-36
2021/10/12 09:24:53;;;;;;;2.23;1.80;;;21.70;72.50;;;;;;5105482;28;20027;-36
2021/10/12 09:27:20;;;;;;;1.90;1.73;;;21.70;72.60;;;;;;5105541;28;20058;-36
2021/10/12 09:29:50;;;;;;;2.03;1.83;;;21.70;72.60;;;;;;5123782;28;20049;-36
2021/10/12 09:32:16;;;;;;;2.13;1.45;;;21.70;72.60;;;;;;5123548;28;20032;-35
2021/10/12 09:34:44;;;;;;;1.80;1.70;;;21.70;72.60;;;;;;5123641;27;20162;-36
2021/10/12 09:37:11;;;;;;;1.67;1.55;;;21.70;72.60;;;;;;5123525;28;20054;-36
2021/10/12 09:39:45;;;;;;;1.90;1.80;;;21.70;72.60;;;;;;5105558;28;20024;-36
2021/10/12 09:42:13;;;;;;;1.60;1.50;;;21.70;72.70;;;;;;5123821;28;20035;-36
2021/10/12 09:44:49;;;;;;;1.75;1.65;;;21.70;72.70;;;;;;5123449;28;20031;-36
2021/10/12 09:47:15;;;;;;;3.90;1.90;;;21.70;72.70;;;;;;5123574;28;20020;-36
2021/10/12 09:49:43;;;;;;;2.03;1.70;;;21.60;72.60;;;;;;5123506;28;20043;-36
2021/10/12 09:52:16;;;;;;;2.78;1.80;;;21.70;72.70;;;;;;5123594;27;20042;-36
2021/10/12 09:54:49;;;;;;;1.88;1.50;;;21.60;72.60;;;;;;5123100;28;20083;-36
2021/10/12 09:57:20;;;;;;;2.15;1.60;;;21.70;72.80;;;;;;5123598;28;20024;-36
2021/10/12 09:59:47;;;;;;;2.25;1.75;;;21.60;72.70;;;;;;5122821;28;20066;-36
2021/10/12 10:02:21;;;;;;;1.60;1.50;;;21.60;72.70;;;;;;5122656;28;20049;-36
2021/10/12 10:04:47;;;;;;;2.08;1.75;;;21.60;72.70;;;;;;5122987;28;20058;-36
2021/10/12 10:07:24;;;;;;;2.17;1.60;;;21.60;72.70;;;;;;5123258;28;20051;-36
2021/10/12 10:09:51;;;;;;;2.28;1.75;;;21.60;72.80;;;;;;5106017;27;20031;-36
2021/10/12 10:12:17;;;;;;;2.30;2.03;;;21.60;72.80;;;;;;5104838;28;20036;-36
2021/10/12 10:14:43;;;;;;;1.80;1.70;;;21.60;72.80;;;;;;5123314;28;20736;-36
2021/10/12 10:17:10;;;;;;;1.70;1.60;;;21.60;72.80;;;;;;5122733;28;20022;-36
2021/10/12 10:19:37;;;;;;;2.30;2.10;;;21.60;73.60;;;;;;5104985;28;20129;-36
2021/10/12 10:22:03;;;;;;;2.10;1.60;;;21.60;72.80;;;;;;5104541;28;20050;-36
2021/10/12 10:24:44;;;;;;;2.10;1.55;;;21.60;72.90;;;;;;5123162;28;20066;-36
2021/10/12 10:27:35;;;;;;;2.50;1.70;;;21.60;73.70;;;;;;5123087;28;20036;-36
2021/10/12 10:30:22;;;;;;;1.80;1.70;;;21.60;72.90;;;;;;5122936;28;20083;-36
2021/10/12 10:32:50;;;;;;;2.05;1.85;;;21.60;72.90;;;;;;5122556;28;20035;-36
2021/10/12 10:35:31;;;;;;;2.15;1.95;;;21.60;73.00;;;;;;5122852;28;20049;-36
2021/10/12 10:38:18;;;;;;;2.15;1.70;;;21.60;72.90;;;;;;5106897;28;20456;-36
2021/10/12 10:40:44;;;;;;;2.50;1.75;;;21.60;73.00;;;;;;5107176;27;20028;-36
2021/10/12 10:43:10;;;;;;;2.17;1.95;;;21.60;72.90;;;;;;5122840;28;20027;-36
2021/10/12 10:45:54;;;;;;;2.65;2.10;;;21.50;72.90;;;;;;5104424;28;20027;-36
2021/10/12 10:48:21;;;;;;;2.20;1.98;;;21.50;72.90;;;;;;5123824;28;20028;-36
2021/10/12 10:50:47;;;;;;;1.93;1.77;;;21.50;72.90;;;;;;5126882;28;20139;-36
2021/10/12 10:53:13;;;;;;;2.03;1.60;;;21.50;73.00;;;;;;5127085;28;20043;-36
2021/10/12 10:55:44;;;;;;;1.80;1.70;;;21.50;73.00;;;;;;5126694;28;20028;-36
2021/10/12 10:58:17;;;;;;;2.58;1.83;;;21.50;73.00;;;;;;5126852;28;20034;-36
2021/10/12 11:00:50;;;;;;;1.83;1.70;;;21.50;73.00;;;;;;5126462;28;20024;-36
2021/10/12 11:03:35;;;;;;;1.92;1.73;;;21.50;73.00;;;;;;5108276;28;20035;-36
2021/10/12 11:06:16;;;;;;;2.22;2.03;;;21.50;73.00;;;;;;5126447;28;20016;-35
2021/10/12 11:08:59;;;;;;;1.70;1.60;;;21.50;73.10;;;;;;5126862;28;20043;-36
2021/10/12 11:11:29;;;;;;;2.00;1.90;;;21.50;73.10;;;;;;5126713;27;20028;-36
2021/10/12 11:13:57;;;;;;;2.67;2.13;;;21.50;73.10;;;;;;5126670;28;20059;-36
2021/10/12 11:16:24;;;;;;;2.10;1.90;;;21.50;73.20;;;;;;5126378;28;20091;-36
2021/10/12 11:18:59;;;;;;;2.47;2.03;;;21.50;73.80;;;;;;5126632;28;20038;-36
2021/10/12 11:21:25;;;;;;;2.17;1.98;;;21.50;73.20;;;;;;5126347;28;20102;-36
2021/10/12 11:23:54;;;;;;;2.17;1.98;;;21.50;73.20;;;;;;5126311;28;20023;-36
2021/10/12 11:26:25;;;;;;;1.92;1.80;;;21.50;73.10;;;;;;5126048;28;20027;-36
2021/10/12 11:28:52;;;;;;;2.20;2.00;;;21.50;73.20;;;;;;5126094;28;20035;-40
2021/10/12 11:31:21;;;;;;;2.13;1.92;;;21.50;73.20;;;;;;5126140;28;20087;-36
2021/10/12 11:33:51;;;;;;;1.98;1.85;;;21.50;73.20;;;;;;5126126;28;20043;-36
2021/10/12 11:36:27;;;;;;;1.70;1.60;;;21.50;73.30;;;;;;5107847;28;20051;-36
2021/10/12 11:38:55;;;;;;;2.05;1.92;;;21.50;73.30;;;;;;5125797;28;20027;-36
2021/10/12 11:41:40;;;;;;;2.97;2.10;;;21.50;73.30;;;;;;5126056;27;20069;-36
2021/10/12 11:44:20;;;;;;;1.83;1.73;;;21.40;73.20;;;;;;5126256;28;20050;-36
2021/10/12 11:46:50;;;;;;;2.20;1.83;;;21.40;73.20;;;;;;5126006;28;20015;-36
2021/10/12 11:49:20;;;;;;;2.28;2.08;;;21.40;73.30;;;;;;5125896;28;20044;-36
2021/10/12 11:51:48;;;;;;;3.50;2.22;;;21.50;73.40;;;;;;5125931;28;20027;-36
2021/10/12 11:54:14;;;;;;;2.28;1.90;;;21.50;73.40;;;;;;5125536;28;20048;-36
2021/10/12 11:56:41;;;;;;;2.40;2.20;;;21.40;73.40;;;;;;5107310;28;20111;-36
2021/10/12 11:59:11;;;;;;;2.33;2.13;;;21.40;73.30;;;;;;5125346;28;20036;-36
2021/10/12 12:01:40;;;;;;;2.80;2.05;;;21.40;73.40;;;;;;5125368;28;20043;-36
2021/10/12 12:04:06;;;;;;;2.53;2.28;;;21.40;73.40;;;;;;5125606;28;20095;-36
2021/10/12 12:06:35;;;;;;;2.60;2.40;;;21.40;73.40;;;;;;5107232;28;20051;-35
2021/10/12 12:09:06;;;;;;;2.75;2.25;;;21.40;73.40;;;;;;5107515;28;20047;-36
2021/10/12 12:11:32;;;;;;;2.50;2.30;;;21.40;73.50;;;;;;5124362;28;20030;-36
2021/10/12 12:13:59;;;;;;;2.88;2.22;;;21.40;73.40;;;;;;5124465;28;20110;-36
2021/10/12 12:16:32;;;;;;;2.33;2.15;;;21.40;73.40;;;;;;5125448;28;20088;-36
2021/10/12 12:18:59;;;;;;;2.25;2.05;;;21.40;73.40;;;;;;5125569;28;20043;-36
2021/10/12 12:21:27;;;;;;;2.47;2.28;;;21.40;73.50;;;;;;5125340;28;20039;-36
2021/10/12 12:23:58;;;;;;;2.63;2.42;;;21.40;73.50;;;;;;5125297;28;20023;-36
2021/10/12 12:26:27;;;;;;;2.45;2.25;;;21.40;73.50;;;;;;5125153;28;20059;-36
2021/10/12 12:28:53;;;;;;;2.60;2.40;;;21.40;73.60;;;;;;5125189;28;20020;-36
2021/10/12 12:31:23;;;;;;;2.42;2.22;;;21.40;73.50;;;;;;5125341;28;20031;-36
2021/10/12 12:33:50;;;;;;;2.50;2.30;;;21.40;73.50;;;;;;5124973;28;20098;-36
2021/10/12 12:36:17;;;;;;;2.72;2.53;;;21.40;73.60;;;;;;5125019;28;20084;-36
2021/10/12 12:38:44;;;;;;;2.58;2.33;;;21.40;73.60;;;;;;5124864;28;20046;-36
2021/10/12 12:41:21;;;;;;;2.20;2.10;;;21.40;73.70;;;;;;5125381;28;20070;-36
2021/10/12 12:43:52;;;;;;;2.53;2.33;;;21.40;73.60;;;;;;5125036;28;20031;-36
2021/10/12 12:46:18;;;;;;;2.53;2.33;;;21.40;73.60;;;;;;5125043;28;20024;-36
2021/10/12 12:48:47;;;;;;;2.60;2.28;;;21.40;73.60;;;;;;5124567;28;20020;-36
2021/10/12 12:51:14;;;;;;;2.75;2.30;;;21.40;73.60;;;;;;5104395;28;20047;-36